Time;durP1;ratioP1;P1;durP2;ratioP2;P2;SDS_P1;SDS_P2;PMS_P1;PMS_P2;Temp;Humidity;BMP_temperature;BMP_pressure;BME280_temperature;BME280_humidity;BME280_pressure;Samples;Min_cycle;Max_cycle;Signal;HPM_P1;HPM_P2
2022/05/01 00:02:13;;;;;;;6.63;3.50;;;;;;;11.13;100.00;94459.59;5036014;28;20381;-94
2022/05/01 00:04:38;;;;;;;6.07;3.05;;;;;;;11.10;100.00;94463.53;5039732;28;20074;-94
2022/05/01 00:07:06;;;;;;;5.20;3.22;;;;;;;11.20;100.00;94456.69;5039896;28;20365;-94
2022/05/01 00:09:41;;;;;;;5.72;3.08;;;;;;;11.18;100.00;94454.31;5039886;28;20017;-94
2022/05/01 00:12:10;;;;;;;4.05;2.75;;;;;;;11.19;100.00;94453.25;5040166;28;20083;-93
2022/05/01 00:14:35;;;;;;;9.52;2.85;;;;;;;11.27;100.00;94454.53;5056094;28;20029;-93
2022/05/01 00:17:02;;;;;;;6.43;3.25;;;;;;;11.01;100.00;94454.63;5039639;28;20120;-94
2022/05/01 00:19:32;;;;;;;16.98;3.33;;;;;;;10.80;100.00;94451.28;5039474;28;20029;-93
2022/05/01 00:22:00;;;;;;;5.15;3.10;;;;;;;10.89;100.00;94455.72;5039797;28;20025;-93
2022/05/01 00:24:31;;;;;;;10.70;3.83;;;;;;;10.83;100.00;94441.06;5039819;28;20029;-93
2022/05/01 00:26:58;;;;;;;7.97;3.40;;;;;;;11.22;100.00;94442.22;5039732;28;20030;-93
2022/05/01 00:29:24;;;;;;;7.15;3.15;;;;;;;11.43;100.00;94442.16;5039430;28;20174;-94
2022/05/01 00:32:02;;;;;;;;;;;;;;;;;;;;;
2022/05/01 00:37:16;;;;;;;9.27;4.35;;;;;;;11.48;100.00;94447.38;5039339;28;20087;-94
2022/05/01 00:39:44;;;;;;;11.82;5.18;;;;;;;11.62;100.00;94444.16;5022958;28;20486;-94
2022/05/01 00:45:35;;;;;;;7.32;3.83;;;;;;;11.73;100.00;94435.94;5040139;28;20041;-92
2022/05/01 00:48:11;;;;;;;;;;;;;;;;;;;;;
2022/05/01 00:50:47;;;;;;;;;;;;;;;;;;;;;
2022/05/01 00:53:15;;;;;;;10.55;5.60;;;;;;;11.45;100.00;94456.56;5054100;28;20041;-93
2022/05/01 00:55:44;;;;;;;12.38;4.90;;;;;;;11.56;100.00;94457.31;5038787;28;20501;-94
2022/05/01 00:58:09;;;;;;;16.02;5.85;;;;;;;10.65;100.00;94457.34;5022534;28;20495;-94
2022/05/01 01:00:43;;;;;;;10.80;5.28;;;;;;;10.21;100.00;94466.53;5039303;28;20124;-93
2022/05/01 01:03:58;;;;;;;;;;;;;;;;;;;;;
2022/05/01 01:06:26;;;;;;;13.75;6.45;;;;;;;10.23;100.00;94459.97;5039673;28;20346;-95
2022/05/01 01:09:02;;;;;;;;;;;;;;;;;;;;;
2022/05/01 01:11:43;;;;;;;;;;;;;;;;;;;;;
2022/05/01 01:14:22;;;;;;;;;;;;;;;;;;;;;
2022/05/01 01:17:05;;;;;;;;;;;;;;;;;;;;;
2022/05/01 01:20:07;;;;;;;;;;;;;;;;;;;;;
2022/05/01 01:26:07;;;;;;;7.28;4.85;;;;;;;9.84;100.00;94432.50;5039323;28;20032;-94
2022/05/01 01:32:05;;;;;;;;;;;;;;;;;;;;;
2022/05/01 01:34:40;;;;;;;7.38;4.45;;;;;;;10.13;100.00;94423.31;5038185;28;20029;-94
2022/05/01 01:37:06;;;;;;;7.22;4.95;;;;;;;9.70;100.00;94426.97;5038897;28;20489;-93
2022/05/01 01:39:42;;;;;;;;;;;;;;;;;;;;;
2022/05/01 01:42:09;;;;;;;8.10;4.35;;;;;;;9.86;100.00;94424.34;5038145;28;20338;-93
2022/05/01 01:44:58;;;;;;;10.85;4.90;;;;;;;9.89;100.00;94422.00;5038059;28;20116;-94
2022/05/01 01:47:34;;;;;;;;;;;;;;;;;;;;;
2022/05/01 01:50:07;;;;;;;7.10;4.68;;;;;;;9.92;100.00;94417.31;5037950;28;20024;-94
2022/05/01 01:53:35;;;;;;;;;;;;;;;;;;;;;
2022/05/01 01:56:14;;;;;;;;;;;;;;;;;;;;;
2022/05/01 01:58:43;;;;;;;13.65;6.10;;;;;;;9.33;100.00;94407.03;5037819;28;20460;-95
2022/05/01 02:01:14;;;;;;;13.77;6.25;;;;;;;9.10;100.00;94403.00;5021625;28;20041;-94
2022/05/01 02:03:42;;;;;;;10.07;6.00;;;;;;;9.11;100.00;94402.78;5021578;28;20128;-94
2022/05/01 02:06:23;;;;;;;;;;;;;;;;;;;;;
2022/05/01 02:08:49;;;;;;;12.27;8.95;;;;;;;8.96;100.00;94402.72;5052829;28;20018;-94
2022/05/01 02:11:24;;;;;;;;;;;;;;;;;;;;;
2022/05/01 02:14:11;;;;;;;11.68;6.95;;;;;;;9.02;100.00;94406.91;5037613;28;20017;-94
2022/05/01 02:16:56;;;;;;;;;;;;;;;;;;;;;
2022/05/01 02:19:24;;;;;;;8.68;5.80;;;;;;;8.81;100.00;94406.84;5052475;28;20446;-93
2022/05/01 02:21:54;;;;;;;10.65;6.75;;;;;;;9.06;100.00;94410.59;5056143;28;20075;-93
2022/05/01 02:24:25;;;;;;;10.35;6.10;;;;;;;9.03;100.00;94409.28;5057201;28;20037;-93
2022/05/01 02:26:58;;;;;;;7.50;5.22;;;;;;;9.23;100.00;94407.75;5058180;28;20074;-94
2022/05/01 02:29:23;;;;;;;11.10;6.25;;;;;;;9.44;100.00;94402.59;5041915;28;20078;-94
2022/05/01 02:31:55;;;;;;;7.93;5.63;;;;;;;9.52;100.00;94406.53;5040767;28;20088;-94
2022/05/01 02:34:26;;;;;;;9.90;5.53;;;;;;;9.62;100.00;94414.41;5057017;28;20111;-94
2022/05/01 02:36:52;;;;;;;11.07;4.57;;;;;;;9.88;100.00;94414.41;5041108;28;20028;-94
2022/05/01 02:39:28;;;;;;;;;;;;;;;;;;;;;
2022/05/01 02:41:57;;;;;;;9.07;4.32;;;;;;;10.04;100.00;94410.78;5057131;28;20035;-93
2022/05/01 02:44:32;;;;;;;7.95;4.43;;;;;;;9.98;100.00;94421.50;5040900;28;20036;-94
2022/05/01 02:47:08;;;;;;;;;;;;;;;;;;;;;
2022/05/01 02:49:47;;;;;;;;;;;;;;;;;;;;;
2022/05/01 02:52:22;;;;;;;7.75;4.63;;;;;;;10.00;100.00;94409.72;5056549;28;20080;-95
2022/05/01 02:54:59;;;;;;;;;;;;;;;;;;;;;
2022/05/01 02:57:30;;;;;;;9.30;4.80;;;;;;;9.98;100.00;94413.66;5056632;28;20042;-93
2022/05/01 02:59:58;;;;;;;11.60;5.28;;;;;;;9.78;100.00;94409.19;5040626;28;20090;-93
2022/05/01 03:02:29;;;;;;;5.88;4.38;;;;;;;9.75;100.00;94408.66;5040628;28;20060;-93
2022/05/01 03:05:05;;;;;;;;;;;;;;;;;;;;;
2022/05/01 03:07:40;;;;;;;;;;;;;;;;;;;;;
2022/05/01 03:10:18;;;;;;;;;;;;;;;;;;;;;
2022/05/01 03:13:27;;;;;;;7.88;4.47;;;;;;;10.06;100.00;94404.50;5056296;28;20031;-94
2022/05/01 03:16:02;;;;;;;8.65;4.20;;;;;;;9.85;100.00;94407.09;5056338;28;20127;-93
2022/05/01 03:24:28;;;;;;;;;;;;;;;;;;;;;
2022/05/01 03:26:56;;;;;;;9.05;5.43;;;;;;;9.19;100.00;94397.06;5056224;28;20020;-93
2022/05/01 03:29:32;;;;;;;;;;;;;;;;;;;;;
2022/05/01 03:32:03;;;;;;;9.65;4.80;;;;;;;9.53;100.00;94392.41;5056103;28;20025;-93
2022/05/01 03:34:40;;;;;;;;;;;;;;;;;;;;;
2022/05/01 03:37:18;;;;;;;;;;;;;;;;;;;;;
2022/05/01 03:39:53;;;;;;;11.40;5.72;;;;;;;9.26;100.00;94394.19;5060100;28;20029;-93
2022/05/01 03:42:23;;;;;;;13.88;6.78;;;;;;;8.70;100.00;94381.69;5045030;28;20041;-93
2022/05/01 03:45:01;;;;;;;;;;;;;;;;;;;;;
2022/05/01 03:47:37;;;;;;;;;;;;;;;;;;;;;
2022/05/01 03:50:04;;;;;;;14.88;6.90;;;;;;;9.15;100.00;94395.97;5060031;28;20025;-95
2022/05/01 03:52:33;;;;;;;9.98;6.60;;;;;;;9.20;100.00;94387.38;5059850;28;20056;-93
2022/05/01 03:55:00;;;;;;;9.82;6.20;;;;;;;8.94;100.00;94383.91;5059907;28;20035;-94
2022/05/01 03:57:41;;;;;;;8.35;4.35;;;;;;;9.23;100.00;94380.84;5059893;28;20060;-93
2022/05/01 04:00:20;;;;;;;;;;;;;;;;;;;;;
2022/05/01 04:02:59;;;;;;;;;;;;;;;;;;;;;
2022/05/01 04:05:25;;;;;;;7.80;5.07;;;;;;;9.45;100.00;94391.88;5059769;28;20438;-93
2022/05/01 04:07:59;;;;;;;8.90;5.70;;;;;;;9.45;100.00;94393.72;5059847;28;20123;-93
2022/05/01 04:10:38;;;;;;;;;;;;;;;;;;;;;
2022/05/01 04:16:31;;;;;;;8.95;5.72;;;;;;;9.37;100.00;94383.75;5060652;28;20466;-94
2022/05/01 04:19:22;;;;;;;;;;;;;;;;;;;;;
2022/05/01 04:21:58;;;;;;;;;;;;;;;;;;;;;
2022/05/01 04:24:35;;;;;;;11.10;5.00;;;;;;;9.25;100.00;94392.59;5060355;28;20021;-94
2022/05/01 04:27:03;;;;;;;7.13;5.00;;;;;;;9.47;100.00;94397.66;5059358;28;20060;-94
2022/05/01 04:29:38;;;;;;;12.32;5.15;;;;;;;9.05;100.00;94401.97;5060346;28;20036;-94
2022/05/01 04:32:20;;;;;;;;;;;;;;;;;;;;;
2022/05/01 04:35:04;;;;;;;12.75;6.00;;;;;;;9.23;100.00;94394.69;5059327;28;20342;-95
2022/05/01 04:37:30;;;;;;;13.10;6.15;;;;;;;9.05;100.00;94396.75;5059238;28;20036;-93
2022/05/01 04:40:05;;;;;;;11.75;6.68;;;;;;;8.93;100.00;94390.94;5058992;28;20024;-93
2022/05/01 04:42:30;;;;;;;9.65;5.70;;;;;;;9.26;100.00;94396.00;5043872;28;20040;-93
2022/05/01 04:44:56;;;;;;;10.35;5.88;;;;;;;8.88;100.00;94390.94;5059179;28;20033;-94
2022/05/01 04:47:24;;;;;;;10.27;5.10;;;;;;;9.20;100.00;94405.66;5060280;28;20033;-93
2022/05/01 04:50:11;;;;;;;;;;;;;;;;;;;;;
2022/05/01 04:52:41;;;;;;;8.95;5.57;;;;;;;9.24;100.00;94405.94;5059077;28;20031;-94
2022/05/01 04:55:23;;;;;;;10.73;5.25;;;;;;;9.46;100.00;94403.91;5043099;28;20032;-95
2022/05/01 04:58:11;;;;;;;12.55;5.55;;;;;;;9.49;100.00;94407.81;5058753;28;20146;-95
2022/05/01 05:01:05;;;;;;;11.63;6.90;;;;;;;8.81;100.00;94404.22;5058449;28;20063;-94
2022/05/01 05:04:01;;;;;;;;;;;;;;;;;;;;;
2022/05/01 05:06:54;;;;;;;10.23;6.45;;;;;;;8.45;100.00;94414.44;5058860;28;20028;-95
2022/05/01 05:12:21;;;;;;;;;;;;;;;;;;;;;
2022/05/01 05:14:51;;;;;;;8.88;4.70;;;;;;;9.65;100.00;94416.50;5058521;28;20021;-93
2022/05/01 05:20:13;;;;;;;8.70;4.75;;;;;;;9.85;100.00;94434.06;5058337;28;20040;-94
2022/05/01 05:22:55;;;;;;;;;;;;;;;;;;;;;
2022/05/01 05:25:29;;;;;;;5.90;3.78;;;;;;;10.06;100.00;94428.81;5058374;28;20024;-94
2022/05/01 05:28:12;;;;;;;;;;;;;;;;;;;;;
2022/05/01 05:30:38;;;;;;;5.97;4.10;;;;;;;10.52;100.00;94428.03;5058180;28;20013;-93
2022/05/01 05:33:11;;;;;;;9.88;5.30;;;;;;;10.73;100.00;94431.41;5058541;28;20111;-93
2022/05/01 05:35:49;;;;;;;;;;;;;;;;;;;;;
2022/05/01 05:38:28;;;;;;;;;;;;;;;;;;;;;
2022/05/01 05:40:58;;;;;;;6.13;3.65;;;;;;;11.09;100.00;94422.63;5058564;28;20023;-93
2022/05/01 05:43:26;;;;;;;9.07;4.10;;;;;;;11.08;100.00;94434.16;5057920;28;20036;-93
2022/05/01 05:46:02;;;;;;;7.72;4.50;;;;;;;11.01;100.00;94423.97;5041716;28;20025;-95
2022/05/01 05:48:40;;;;;;;;;;;;;;;;;;;;;
2022/05/01 05:51:08;;;;;;;9.32;4.70;;;;;;;10.86;100.00;94431.88;5057923;28;20039;-94
2022/05/01 05:53:33;;;;;;;8.15;4.78;;;;;;;11.06;100.00;94420.56;5057678;28;20074;-93
2022/05/01 05:56:06;;;;;;;13.60;4.88;;;;;;;11.14;100.00;94424.44;5041673;28;20438;-93
2022/05/01 05:58:34;;;;;;;12.85;4.53;;;;;;;11.28;100.00;94428.06;5042361;28;20036;-93
2022/05/01 06:01:02;;;;;;;10.32;6.22;;;;;;;10.72;100.00;94439.50;5057656;28;20032;-92
2022/05/01 06:03:27;;;;;;;10.23;4.72;;;;;;;10.55;100.00;94430.13;5042006;28;20418;-94
2022/05/01 06:05:53;;;;;;;9.80;5.03;;;;;;;10.28;100.00;94431.16;5058178;28;20024;-92
2022/05/01 06:08:18;;;;;;;8.05;4.35;;;;;;;10.50;100.00;94443.22;5058527;28;20025;-93
2022/05/01 06:10:44;;;;;;;6.28;4.10;;;;;;;10.93;100.00;94429.75;5040877;28;20380;-91
2022/05/01 06:13:19;;;;;;;;;;;;;;;;;;;;;
2022/05/01 06:15:45;;;;;;;5.95;4.13;;;;;;;12.11;100.00;94435.44;5057659;28;20464;-93
2022/05/01 06:18:18;;;;;;;10.45;3.80;;;;;;;11.79;100.00;94435.91;5041747;28;20119;-93
2022/05/01 06:20:50;;;;;;;8.30;3.87;;;;;;;11.48;100.00;94430.81;5057193;28;20036;-93
2022/05/01 06:23:16;;;;;;;10.17;5.20;;;;;;;11.70;100.00;94431.22;5042241;28;20060;-92
2022/05/01 06:25:46;;;;;;;9.48;5.95;;;;;;;11.42;100.00;94448.47;5057142;28;20272;-94
2022/05/01 06:28:15;;;;;;;7.72;5.15;;;;;;;12.41;100.00;94441.50;5041258;28;20035;-92
2022/05/01 06:30:45;;;;;;;5.40;4.20;;;;;;;11.50;100.00;94437.38;5040808;28;20021;-93
2022/05/01 06:34:14;;;;;;;;;;;;;;;;;;;;;
2022/05/01 06:36:41;;;;;;;10.23;4.40;;;;;;;12.16;100.00;94438.03;5058095;28;20028;-93
2022/05/01 06:39:22;;;;;;;10.43;4.10;;;;;;;12.96;100.00;94434.41;5040180;28;20128;-93
2022/05/01 06:41:57;;;;;;;7.70;3.45;;;;;;;13.51;100.00;94433.25;5042426;28;20029;-93
2022/05/01 06:44:23;;;;;;;7.78;3.80;;;;;;;13.31;100.00;94436.91;5041604;28;20036;-93
2022/05/01 06:46:50;;;;;;;7.88;3.75;;;;;;;13.51;100.00;94436.66;5056920;28;20039;-93
2022/05/01 06:49:44;;;;;;;6.22;4.32;;;;;;;13.99;100.00;94448.13;5041807;28;20036;-92
2022/05/01 06:52:11;;;;;;;9.57;5.28;;;;;;;13.12;100.00;94448.94;5051053;28;20029;-93
2022/05/01 06:54:38;;;;;;;6.72;4.25;;;;;;;13.88;100.00;94444.06;5056580;28;20032;-92
2022/05/01 06:57:14;;;;;;;;;;;;;;;;;;;;;
2022/05/01 06:59:40;;;;;;;6.18;4.30;;;;;;;13.90;100.00;94447.19;5056418;28;20020;-91
2022/05/01 07:02:10;;;;;;;6.57;4.50;;;;;;;14.02;100.00;94444.91;5040306;28;20128;-92
2022/05/01 07:04:35;;;;;;;10.73;3.67;;;;;;;14.59;100.00;94443.19;5040255;28;20454;-91
2022/05/01 07:07:02;;;;;;;10.07;4.10;;;;;;;14.65;100.00;94442.06;5057658;28;20040;-92
2022/05/01 07:09:37;;;;;;;;;;;;;;;;;;;;;
2022/05/01 07:12:03;;;;;;;6.50;3.28;;;;;;;15.34;100.00;94443.94;5055621;28;20021;-91
2022/05/01 07:14:31;;;;;;;5.25;3.90;;;;;;;15.68;100.00;94436.66;5039887;28;20076;-91
2022/05/01 07:16:56;;;;;;;7.05;4.75;;;;;;;14.00;100.00;94439.16;5039920;28;20052;-91
2022/05/01 07:19:24;;;;;;;5.90;3.60;;;;;;;15.38;100.00;94442.28;5056468;28;20075;-92
2022/05/01 07:21:51;;;;;;;5.57;3.85;;;;;;;15.53;100.00;94440.41;5040341;28;20078;-92
2022/05/01 07:24:17;;;;;;;6.80;4.10;;;;;;;15.71;100.00;94444.00;5039546;28;20060;-92
2022/05/01 07:26:45;;;;;;;7.25;3.92;;;;;;;15.77;100.00;94440.16;5039581;28;20075;-93
2022/05/01 07:29:10;;;;;;;7.00;4.22;;;;;;;15.67;100.00;94441.16;5057161;28;20032;-93
2022/05/01 07:31:36;;;;;;;7.10;4.15;;;;;;;15.00;100.00;94441.72;5039858;28;20033;-92
2022/05/01 07:34:01;;;;;;;5.90;3.40;;;;;;;16.00;100.00;94450.00;5039623;28;20029;-92
2022/05/01 07:36:27;;;;;;;7.05;4.38;;;;;;;15.48;100.00;94435.22;5039577;28;20032;-92
2022/05/01 07:38:53;;;;;;;4.95;4.03;;;;;;;15.12;100.00;94436.72;5039629;28;20044;-92
2022/05/01 07:41:19;;;;;;;6.68;3.65;;;;;;;16.19;100.00;94441.91;5040074;28;20025;-92
2022/05/01 07:43:55;;;;;;;;;;;;;;;;;;;;;
2022/05/01 07:46:22;;;;;;;5.03;3.33;;;;;;;16.74;100.00;94443.44;5056392;28;20343;-93
2022/05/01 07:48:55;;;;;;;5.72;3.22;;;;;;;16.79;100.00;94439.88;5039810;28;20108;-93
2022/05/01 07:51:20;;;;;;;3.72;2.72;;;;;;;16.66;100.00;94442.31;5040778;28;20028;-93
2022/05/01 07:54:03;;;;;;;;;;;;;;;;;;;;;
2022/05/01 07:56:29;;;;;;;5.10;2.80;;;;;;;16.53;100.00;94437.88;5055934;28;20341;-92
2022/05/01 07:58:55;;;;;;;3.83;2.60;;;;;;;17.26;100.00;94431.53;5039603;28;20123;-92
2022/05/01 08:01:20;;;;;;;6.38;2.47;;;;;;;18.02;100.00;94429.59;5039057;28;20037;-93
2022/05/01 08:09:29;;;;;;;3.17;2.20;;;;;;;17.66;100.00;94434.09;5048908;28;20453;-92
2022/05/01 08:12:01;;;;;;;5.22;2.83;;;;;;;16.45;100.00;94431.47;5039568;28;20079;-93
2022/05/01 08:14:26;;;;;;;3.80;2.70;;;;;;;15.96;100.00;94436.59;5040065;28;20079;-93
2022/05/01 08:16:54;;;;;;;6.72;2.70;;;;;;;16.96;100.00;94434.66;5039482;28;20032;-93
2022/05/01 08:22:39;;;;;;;;;;;;;;;;;;;;;
2022/05/01 08:25:28;;;;;;;5.00;2.70;;;;;;;17.52;100.00;94436.09;5059555;28;20051;-93
2022/05/01 08:27:56;;;;;;;3.47;1.98;;;;;;;17.66;100.00;94426.16;5058701;28;20420;-93
2022/05/01 08:30:23;;;;;;;4.18;2.40;;;;;;;17.36;100.00;94439.19;5043342;28;20021;-93
2022/05/01 08:39:51;;;;;;;4.65;2.78;;;;;;;17.91;100.00;94444.22;5018829;28;20088;-94
2022/05/01 08:46:01;;;;;;;;;;;;;;;;;;;;;
2022/05/01 08:51:51;;;;;;;9.35;3.10;;;;;;;17.20;100.00;94449.41;5018563;28;20066;-94
2022/05/01 08:54:19;;;;;;;6.30;2.80;;;;;;;16.57;92.78;94444.16;5002408;28;20355;-93
2022/05/01 08:56:48;;;;;;;4.10;2.20;;;;;;;18.19;85.51;94438.63;5024557;28;20044;-92
2022/05/01 08:59:15;;;;;;;8.90;2.33;;;;;;;18.08;92.41;94443.50;5042618;28;20028;-94
2022/05/01 09:01:43;;;;;;;5.30;2.28;;;;;;;17.21;87.98;94440.38;5058611;28;20030;-93
2022/05/01 09:04:12;;;;;;;6.95;2.55;;;;;;;16.92;100.00;94448.81;5059071;28;20024;-94
2022/05/01 09:06:38;;;;;;;4.30;2.90;;;;;;;16.47;100.00;94447.03;5058565;28;20024;-93
2022/05/01 09:09:15;;;;;;;4.82;2.35;;;;;;;16.38;100.00;94437.19;5058952;28;20052;-94
2022/05/01 09:14:26;;;;;;;7.28;2.63;;;;;;;16.48;98.77;94449.38;5058629;28;20051;-93
2022/05/01 09:17:13;;;;;;;4.75;2.65;;;;;;;17.48;92.46;94437.78;5042225;28;20025;-93
2022/05/01 09:19:43;;;;;;;6.72;2.55;;;;;;;16.95;82.11;94445.56;5042502;28;20029;-93
2022/05/01 09:22:21;;;;;;;;;;;;;;;;;;;;;
2022/05/01 09:24:56;;;;;;;5.28;2.65;;;;;;;16.23;82.54;94442.84;5058324;28;20040;-93
2022/05/01 09:27:27;;;;;;;6.82;2.70;;;;;;;16.10;78.20;94444.47;5058329;28;20120;-94
2022/05/01 09:30:22;;;;;;;;;;;;;;;;;;;;;
2022/05/01 09:36:35;;;;;;;5.05;2.72;;;;;;;15.24;76.38;94452.06;5058196;28;20039;-92
2022/05/01 09:42:25;;;;;;;7.85;3.70;;;;;;;14.61;100.00;94454.25;5059069;28;20350;-93
2022/05/01 09:45:07;;;;;;;5.60;3.22;;;;;;;14.72;100.00;94460.94;5042091;28;20102;-94
2022/05/01 09:48:13;;;;;;;;;;;;;;;;;;;;;
2022/05/01 09:50:58;;;;;;;11.45;6.03;;;;;;;14.96;100.00;94460.75;5059091;28;20024;-93
2022/05/01 09:53:26;;;;;;;7.65;4.32;;;;;;;15.27;93.77;94456.75;5057979;28;20083;-93
2022/05/01 09:56:03;;;;;;;9.13;4.93;;;;;;;14.91;100.00;94454.78;5041703;28;20029;-91
2022/05/01 09:58:43;;;;;;;;;;;;;;;;;;;;;
2022/05/01 10:01:11;;;;;;;8.52;4.50;;;;;;;15.62;100.00;94448.41;5057971;28;20425;-93
2022/05/01 10:06:53;;;;;;;10.00;6.00;;;;;;;15.18;100.00;94456.66;5048070;28;20060;-93
2022/05/01 10:09:20;;;;;;;11.45;5.80;;;;;;;15.38;100.00;94452.06;5057357;28;20370;-92
2022/05/01 10:12:23;;;;;;;7.97;5.63;;;;;;;15.08;100.00;94456.84;5041055;28;20025;-93
2022/05/01 10:14:59;;;;;;;;;;;;;;;;;;;;;
2022/05/01 10:17:32;;;;;;;9.90;4.57;;;;;;;13.98;98.64;94452.59;5057312;28;20027;-92
2022/05/01 10:20:07;;;;;;;7.10;4.43;;;;;;;14.60;100.00;94452.69;5057328;28;20426;-93
2022/05/01 10:22:38;;;;;;;7.63;4.47;;;;;;;14.18;88.05;94453.34;5042080;28;20029;-93
2022/05/01 10:25:04;;;;;;;5.63;3.65;;;;;;;14.72;85.03;94454.88;5041155;28;20339;-93
2022/05/01 10:27:59;;;;;;;6.20;3.28;;;;;;;15.48;78.23;94443.94;5057062;28;20469;-93
2022/05/01 10:33:49;;;;;;;;;;;;;;;;;;;;;
2022/05/01 10:36:33;;;;;;;6.95;3.35;;;;;;;15.21;81.63;94450.03;5057186;28;20035;-93
2022/05/01 10:39:09;;;;;;;;;;;;;;;14.35;84.29;94446.78;5058814;28;20028;-94
2022/05/01 10:41:41;;;;;;;6.82;3.65;;;;;;;13.90;84.34;94445.31;5057066;28;19916;-94
2022/05/01 10:44:17;;;;;;;;;;;;;;;;;;;;;
2022/05/01 10:46:52;;;;;;;10.60;4.50;;;;;;;13.47;98.13;94442.75;5056841;28;20021;-93
2022/05/01 10:49:32;;;;;;;8.68;4.70;;;;;;;13.75;98.17;94435.81;5056610;28;20025;-92
2022/05/01 10:52:32;;;;;;;8.18;4.45;;;;;;;14.44;82.08;94439.75;5040155;28;20090;-94
2022/05/01 10:55:09;;;;;;;9.88;4.35;;;;;;;14.14;80.05;94432.06;5056830;28;20056;-94
2022/05/01 10:57:45;;;;;;;9.30;3.95;;;;;;;14.33;77.51;94435.72;5040606;28;20123;-94
2022/05/01 11:00:12;;;;;;;5.00;3.50;;;;;;;14.35;78.23;94428.34;5056718;28;20090;-93
2022/05/01 11:02:51;;;;;;;7.22;4.40;;;;;;;14.12;78.13;94430.78;5040017;28;20086;-92
2022/05/01 11:05:54;;;;;;;;;;;;;;;;;;;;;
2022/05/01 11:08:27;;;;;;;10.80;4.63;;;;;;;15.82;61.54;94415.47;5056560;28;20027;-93
2022/05/01 11:10:54;;;;;;;7.28;4.30;;;;;;;16.15;59.05;94412.63;5056263;28;20504;-94
2022/05/01 11:13:37;;;;;;;;;;;;;;;;;;;;;
2022/05/01 11:16:04;;;;;;;5.05;3.83;;;;;;;16.69;61.82;94414.47;5056494;28;20047;-95
2022/05/01 11:18:39;;;;;;;8.40;3.50;;;;;;;17.07;62.57;94416.69;5040137;28;20427;-94
2022/05/01 11:21:32;;;;;;;9.00;4.80;;;;;;;17.01;61.28;94415.25;5056652;28;20029;-94
2022/05/01 11:24:03;;;;;;;6.13;4.07;;;;;;;17.56;61.25;94407.91;5005401;28;20032;-94
2022/05/01 11:26:32;;;;;;;5.07;3.80;;;;;;;18.17;59.54;94401.81;5040245;28;20079;-94
2022/05/01 11:29:13;;;;;;;6.30;3.53;;;;;;;18.92;59.28;94402.53;5039751;28;20021;-95
2022/05/01 11:32:07;;;;;;;7.68;4.20;;;;;;;19.45;55.55;94404.94;5040163;28;20386;-95
2022/05/01 11:34:34;;;;;;;;;;;;;;;;;;;;;
2022/05/01 11:37:36;;;;;;;;;;;;;;;;;;;;;
2022/05/01 11:40:30;;;;;;;7.25;4.80;;;;;;;17.46;58.51;94389.66;5056213;28;20027;-94
2022/05/01 11:46:30;;;;;;;;;;;;;;;;;;;;;
2022/05/01 11:49:17;;;;;;;7.72;4.05;;;;;;;19.26;58.38;94384.91;5056406;28;20023;-95
2022/05/01 11:51:44;;;;;;;8.38;4.78;;;;;;;18.08;58.39;94385.16;5039985;28;20031;-96
2022/05/01 11:54:27;;;;;;;7.53;4.50;;;;;;;17.47;59.86;94373.47;5040106;28;20033;-94
2022/05/01 12:03:01;;;;;;;10.30;4.93;;;;;;;18.00;55.08;94367.34;5060038;28;20032;-94
2022/05/01 12:05:53;;;;;;;12.20;5.28;;;;;;;18.61;51.35;94366.44;5059342;28;20036;-94
2022/05/01 12:08:20;;;;;;;8.55;4.47;;;;;;;17.35;57.82;94358.16;5035230;28;20331;-95
2022/05/01 12:10:53;;;;;;;9.98;4.40;;;;;;;17.12;61.41;94356.75;5060183;28;20108;-94
2022/05/01 12:13:22;;;;;;;;;;;;;;;18.14;59.45;94357.38;5043905;28;20025;-91
2022/05/01 12:15:48;;;;;;;5.95;3.60;;;;;;;17.27;61.15;94350.22;5043172;28;19908;-92
2022/05/01 12:18:23;;;;;;;7.00;4.40;;;;;;;17.61;57.24;94354.75;5042912;28;20116;-92
2022/05/01 12:20:57;;;;;;;6.95;4.40;;;;;;;17.84;59.28;94354.59;5042991;28;20025;-92
2022/05/01 12:23:25;;;;;;;5.93;4.30;;;;;;;17.56;59.18;94354.13;5044576;28;20060;-92
2022/05/01 12:25:52;;;;;;;8.38;3.53;;;;;;;17.06;70.16;94353.47;5043741;28;20029;-92
2022/05/01 12:31:23;;;;;;;;;;;;;;;;;;;;;
2022/05/01 12:34:20;;;;;;;;;;;;;;;;;;;;;
2022/05/01 12:37:15;;;;;;;10.55;3.80;;;;;;;16.86;71.71;94339.69;5059898;28;20029;-94
2022/05/01 12:39:43;;;;;;;4.65;3.55;;;;;;;16.84;67.18;94344.50;5059813;28;20025;-94
2022/05/01 12:45:35;;;;;;;;;;;;;;;;;;;;;
2022/05/01 12:48:31;;;;;;;7.55;3.88;;;;;;;17.47;60.08;94322.34;5060023;28;20037;-94
2022/05/01 12:51:09;;;;;;;;;;;;;;;;;;;;;
2022/05/01 12:53:51;;;;;;;8.32;3.95;;;;;;;16.75;63.99;94323.31;5059073;28;20024;-93
2022/05/01 12:56:34;;;;;;;;;;;;;;;;;;;;;
2022/05/01 12:59:45;;;;;;;;;;;;;;;;;;;;;
2022/05/01 13:02:47;;;;;;;;;;;;;;;;;;;;;
2022/05/01 13:05:17;;;;;;;7.65;3.80;;;;;;;17.32;64.69;94316.41;5060000;28;20033;-94
2022/05/01 13:08:25;;;;;;;5.45;3.60;;;;;;;17.47;59.93;94309.91;5042505;28;20112;-93
2022/05/01 13:11:24;;;;;;;8.13;5.88;;;;;;;16.95;65.74;94313.25;5057671;28;20071;-93
2022/05/01 13:14:15;;;;;;;15.13;6.03;;;;;;;17.47;61.52;94309.91;5043361;28;20116;-94
2022/05/01 13:16:47;;;;;;;6.88;3.63;;;;;;;17.07;62.18;94302.88;5043655;28;20021;-94
2022/05/01 13:19:16;;;;;;;7.95;4.40;;;;;;;15.49;62.82;94296.84;5042406;28;20079;-92
2022/05/01 13:21:50;;;;;;;5.93;3.50;;;;;;;15.76;66.86;94297.81;5042244;28;20123;-91
2022/05/01 13:24:29;;;;;;;7.50;4.65;;;;;;;16.31;64.97;94299.38;5022258;28;20025;-91
2022/05/01 13:27:05;;;;;;;5.80;3.60;;;;;;;16.19;66.63;94294.63;5036509;28;20439;-91
2022/05/01 13:29:32;;;;;;;7.18;3.60;;;;;;;16.57;64.74;94298.69;5052845;28;20017;-91
2022/05/01 13:31:59;;;;;;;7.97;3.92;;;;;;;16.20;66.41;94298.06;5038240;28;20025;-91
2022/05/01 13:34:28;;;;;;;8.07;4.45;;;;;;;16.63;63.43;94299.31;5022002;28;20052;-90
2022/05/01 13:36:54;;;;;;;8.82;4.43;;;;;;;16.87;66.39;94290.19;5025241;28;20476;-91
2022/05/01 13:39:20;;;;;;;5.38;3.75;;;;;;;17.44;60.23;94299.13;5038294;28;20026;-91
2022/05/01 13:44:45;;;;;;;4.43;3.40;;;;;;;18.17;58.51;94295.75;5037826;28;20350;-91
2022/05/01 13:47:12;;;;;;;7.47;4.13;;;;;;;17.18;60.20;94298.06;5038326;28;20056;-91
2022/05/01 13:49:40;;;;;;;7.05;5.03;;;;;;;17.48;61.87;94297.41;5021748;28;20315;-92
2022/05/01 13:52:07;;;;;;;8.68;3.85;;;;;;;16.94;67.58;94290.53;5021770;28;20095;-93
2022/05/01 13:54:33;;;;;;;7.82;4.70;;;;;;;16.76;69.54;94290.47;5037802;28;20031;-93
2022/05/01 13:57:03;;;;;;;9.10;4.20;;;;;;;16.68;92.95;94296.53;5038115;28;20119;-93
2022/05/01 13:59:31;;;;;;;8.10;4.70;;;;;;;16.68;90.01;94291.25;5037838;28;20354;-94
2022/05/01 14:01:59;;;;;;;8.10;5.40;;;;;;;16.03;86.24;94282.91;5037650;28;20519;-93
2022/05/01 14:04:28;;;;;;;10.05;5.25;;;;;;;16.33;87.43;94281.34;5037525;28;20526;-93
2022/05/01 14:07:04;;;;;;;10.55;4.88;;;;;;;16.56;86.43;94289.19;5037661;28;20021;-93
2022/05/01 14:09:30;;;;;;;9.10;5.88;;;;;;;16.15;93.49;94285.78;5038168;28;20426;-93
2022/05/01 14:11:59;;;;;;;11.52;5.57;;;;;;;15.82;91.65;94286.03;5037421;28;20083;-94
2022/05/01 14:14:25;;;;;;;13.00;5.50;;;;;;;15.80;100.00;94285.56;5037774;28;20092;-93
2022/05/01 14:16:51;;;;;;;8.30;5.00;;;;;;;16.05;89.66;94276.25;5037168;28;20160;-93
2022/05/01 14:20:00;;;;;;;;;;;;;;;;;;;;;
2022/05/01 14:22:26;;;;;;;11.07;5.30;;;;;;;15.65;97.76;94273.50;5035495;28;20025;-93
2022/05/01 14:24:56;;;;;;;8.80;5.80;;;;;;;15.90;87.51;94263.44;5036959;28;20526;-92
2022/05/01 14:27:22;;;;;;;9.30;5.00;;;;;;;15.87;89.08;94269.28;5021065;28;20033;-93
2022/05/01 14:29:50;;;;;;;8.70;5.28;;;;;;;15.73;92.29;94277.28;5020812;28;20017;-92
2022/05/01 14:32:34;;;;;;;8.10;5.75;;;;;;;15.38;91.58;94269.91;5036970;28;20026;-92
2022/05/01 14:35:03;;;;;;;;;;;;;;;14.84;100.00;94273.97;5037805;28;20431;-91
2022/05/01 14:37:52;;;;;;;7.70;5.13;;;;;;;15.01;100.00;94279.72;5020862;28;20291;-93
2022/05/01 14:40:26;;;;;;;9.52;6.45;;;;;;;14.90;99.20;94272.03;5053202;28;20029;-93
2022/05/01 14:42:53;;;;;;;10.52;5.72;;;;;;;14.87;100.00;94275.25;5020915;28;20377;-92
2022/05/01 14:45:26;;;;;;;11.63;5.93;;;;;;;14.85;100.00;94269.50;5021052;28;20029;-92
2022/05/01 14:48:13;;;;;;;10.23;6.47;;;;;;;14.47;100.00;94264.44;5021508;28;20029;-92
2022/05/01 14:50:40;;;;;;;13.82;7.03;;;;;;;14.48;100.00;94261.47;5037250;28;20025;-91
2022/05/01 14:53:09;;;;;;;10.45;5.90;;;;;;;14.83;100.00;94261.88;5020617;28;20033;-92
2022/05/01 14:55:35;;;;;;;7.68;4.88;;;;;;;15.00;100.00;94257.81;5020321;28;20116;-91
2022/05/01 15:06:16;;;;;;;7.88;4.82;;;;;;;15.07;100.00;94263.47;5020453;28;20056;-92
2022/05/01 15:06:21;;;;;;;8.63;5.50;;;;;;;15.11;100.00;94272.34;5036757;28;20406;-92
2022/05/01 15:08:50;;;;;;;11.55;5.30;;;;;;;15.73;100.00;94278.06;5020255;28;20033;-91
2022/05/01 15:11:18;;;;;;;12.85;5.72;;;;;;;15.28;100.00;94284.13;5020624;28;20087;-92